sensor_id;sensor_type;location;lat;lon;timestamp;P1;durP1;ratioP1;P2;durP2;ratioP2
50803;SDS011;37205;51.434;6.756;2024-03-02T00:02:13;3.80;;;1.50;;
50803;SDS011;37205;51.434;6.756;2024-03-02T00:04:39;2.60;;;1.50;;
50803;SDS011;37205;51.434;6.756;2024-03-02T00:07:04;2.35;;;1.35;;
50803;SDS011;37205;51.434;6.756;2024-03-02T00:09:31;3.97;;;1.45;;
50803;SDS011;37205;51.434;6.756;2024-03-02T00:11:57;2.92;;;1.65;;
50803;SDS011;37205;51.434;6.756;2024-03-02T00:14:24;3.05;;;1.42;;
50803;SDS011;37205;51.434;6.756;2024-03-02T00:16:50;3.63;;;1.60;;
50803;SDS011;37205;51.434;6.756;2024-03-02T00:19:16;3.10;;;1.60;;
50803;SDS011;37205;51.434;6.756;2024-03-02T00:21:42;3.20;;;1.67;;
50803;SDS011;37205;51.434;6.756;2024-03-02T00:24:12;3.80;;;1.60;;
50803;SDS011;37205;51.434;6.756;2024-03-02T00:26:47;2.97;;;1.50;;
50803;SDS011;37205;51.434;6.756;2024-03-02T00:29:14;3.67;;;1.42;;
50803;SDS011;37205;51.434;6.756;2024-03-02T00:31:42;3.33;;;1.52;;
50803;SDS011;37205;51.434;6.756;2024-03-02T00:34:07;3.72;;;1.60;;
50803;SDS011;37205;51.434;6.756;2024-03-02T00:36:33;3.95;;;1.60;;
50803;SDS011;37205;51.434;6.756;2024-03-02T00:38:58;3.50;;;1.45;;
50803;SDS011;37205;51.434;6.756;2024-03-02T00:41:25;3.03;;;1.42;;
50803;SDS011;37205;51.434;6.756;2024-03-02T00:43:56;2.88;;;1.67;;
50803;SDS011;37205;51.434;6.756;2024-03-02T00:46:23;3.58;;;1.60;;
50803;SDS011;37205;51.434;6.756;2024-03-02T00:48:56;3.03;;;1.83;;
50803;SDS011;37205;51.434;6.756;2024-03-02T00:51:25;3.85;;;1.30;;
50803;SDS011;37205;51.434;6.756;2024-03-02T00:53:52;3.00;;;1.40;;
50803;SDS011;37205;51.434;6.756;2024-03-02T00:56:21;4.07;;;1.60;;
50803;SDS011;37205;51.434;6.756;2024-03-02T00:58:48;2.95;;;1.63;;
50803;SDS011;37205;51.434;6.756;2024-03-02T01:01:14;3.08;;;1.52;;
50803;SDS011;37205;51.434;6.756;2024-03-02T01:03:41;3.25;;;1.48;;
50803;SDS011;37205;51.434;6.756;2024-03-02T01:06:07;3.08;;;1.50;;
50803;SDS011;37205;51.434;6.756;2024-03-02T01:08:34;3.08;;;1.50;;
50803;SDS011;37205;51.434;6.756;2024-03-02T01:11:03;3.05;;;1.67;;
50803;SDS011;37205;51.434;6.756;2024-03-02T01:13:29;2.92;;;1.40;;
50803;SDS011;37205;51.434;6.756;2024-03-02T01:15:56;3.25;;;1.50;;
50803;SDS011;37205;51.434;6.756;2024-03-02T01:18:22;2.70;;;1.48;;
50803;SDS011;37205;51.434;6.756;2024-03-02T01:20:48;2.60;;;1.50;;
50803;SDS011;37205;51.434;6.756;2024-03-02T01:23:16;2.30;;;1.20;;
50803;SDS011;37205;51.434;6.756;2024-03-02T01:25:42;2.78;;;1.45;;
50803;SDS011;37205;51.434;6.756;2024-03-02T01:28:08;3.78;;;1.55;;
50803;SDS011;37205;51.434;6.756;2024-03-02T01:30:33;3.10;;;1.30;;
50803;SDS011;37205;51.434;6.756;2024-03-02T01:32:59;3.42;;;1.60;;
50803;SDS011;37205;51.434;6.756;2024-03-02T01:35:27;2.70;;;1.30;;
50803;SDS011;37205;51.434;6.756;2024-03-02T01:37:52;3.38;;;1.40;;
50803;SDS011;37205;51.434;6.756;2024-03-02T01:40:18;4.03;;;1.65;;
50803;SDS011;37205;51.434;6.756;2024-03-02T01:42:45;3.03;;;1.40;;
50803;SDS011;37205;51.434;6.756;2024-03-02T01:45:11;3.10;;;1.30;;
50803;SDS011;37205;51.434;6.756;2024-03-02T01:47:36;2.92;;;1.40;;
50803;SDS011;37205;51.434;6.756;2024-03-02T01:50:02;4.57;;;1.48;;
50803;SDS011;37205;51.434;6.756;2024-03-02T01:52:28;3.00;;;1.35;;
50803;SDS011;37205;51.434;6.756;2024-03-02T01:54:54;3.03;;;1.65;;
50803;SDS011;37205;51.434;6.756;2024-03-02T01:57:20;3.13;;;1.45;;
50803;SDS011;37205;51.434;6.756;2024-03-02T01:59:46;3.90;;;1.40;;
50803;SDS011;37205;51.434;6.756;2024-03-02T02:02:15;3.17;;;1.20;;
50803;SDS011;37205;51.434;6.756;2024-03-02T02:04:41;2.88;;;1.20;;
50803;SDS011;37205;51.434;6.756;2024-03-02T02:07:06;2.83;;;1.27;;
50803;SDS011;37205;51.434;6.756;2024-03-02T02:09:32;3.08;;;1.73;;
50803;SDS011;37205;51.434;6.756;2024-03-02T02:11:58;3.30;;;1.40;;
50803;SDS011;37205;51.434;6.756;2024-03-02T02:14:24;2.83;;;1.20;;
50803;SDS011;37205;51.434;6.756;2024-03-02T02:16:49;3.20;;;1.30;;
50803;SDS011;37205;51.434;6.756;2024-03-02T02:19:15;3.55;;;1.50;;
50803;SDS011;37205;51.434;6.756;2024-03-02T02:21:43;2.55;;;1.13;;
50803;SDS011;37205;51.434;6.756;2024-03-02T02:24:09;3.10;;;1.40;;
50803;SDS011;37205;51.434;6.756;2024-03-02T02:26:35;2.83;;;1.50;;
50803;SDS011;37205;51.434;6.756;2024-03-02T02:29:00;2.50;;;1.40;;
50803;SDS011;37205;51.434;6.756;2024-03-02T02:31:26;2.80;;;1.20;;
50803;SDS011;37205;51.434;6.756;2024-03-02T02:33:52;3.38;;;1.45;;
50803;SDS011;37205;51.434;6.756;2024-03-02T02:36:17;2.92;;;1.20;;
50803;SDS011;37205;51.434;6.756;2024-03-02T02:38:44;5.57;;;1.60;;
50803;SDS011;37205;51.434;6.756;2024-03-02T02:41:13;3.55;;;1.40;;
50803;SDS011;37205;51.434;6.756;2024-03-02T02:43:38;3.22;;;1.42;;
50803;SDS011;37205;51.434;6.756;2024-03-02T02:46:05;3.78;;;1.50;;
50803;SDS011;37205;51.434;6.756;2024-03-02T02:48:30;2.97;;;1.38;;
50803;SDS011;37205;51.434;6.756;2024-03-02T02:50:56;3.38;;;1.60;;
50803;SDS011;37205;51.434;6.756;2024-03-02T02:53:21;3.35;;;1.45;;
50803;SDS011;37205;51.434;6.756;2024-03-02T02:55:47;4.07;;;1.40;;
50803;SDS011;37205;51.434;6.756;2024-03-02T02:58:13;2.92;;;1.20;;
50803;SDS011;37205;51.434;6.756;2024-03-02T03:00:39;2.88;;;1.42;;
50803;SDS011;37205;51.434;6.756;2024-03-02T03:03:05;2.20;;;1.10;;
50803;SDS011;37205;51.434;6.756;2024-03-02T03:05:31;3.28;;;1.50;;
50803;SDS011;37205;51.434;6.756;2024-03-02T03:07:56;3.65;;;1.63;;
50803;SDS011;37205;51.434;6.756;2024-03-02T03:10:22;3.95;;;1.67;;
50803;SDS011;37205;51.434;6.756;2024-03-02T03:12:48;2.75;;;1.38;;
50803;SDS011;37205;51.434;6.756;2024-03-02T03:15:14;3.28;;;1.42;;
50803;SDS011;37205;51.434;6.756;2024-03-02T03:17:41;3.78;;;1.40;;
50803;SDS011;37205;51.434;6.756;2024-03-02T03:20:06;4.32;;;1.77;;
50803;SDS011;37205;51.434;6.756;2024-03-02T03:22:36;3.45;;;1.50;;
50803;SDS011;37205;51.434;6.756;2024-03-02T03:25:02;4.85;;;1.30;;
50803;SDS011;37205;51.434;6.756;2024-03-02T03:27:28;4.25;;;1.42;;
50803;SDS011;37205;51.434;6.756;2024-03-02T03:29:54;3.58;;;1.45;;
50803;SDS011;37205;51.434;6.756;2024-03-02T03:32:19;3.85;;;2.08;;
50803;SDS011;37205;51.434;6.756;2024-03-02T03:34:45;4.07;;;1.60;;
50803;SDS011;37205;51.434;6.756;2024-03-02T03:37:10;4.80;;;1.65;;
50803;SDS011;37205;51.434;6.756;2024-03-02T03:39:36;3.30;;;1.60;;
50803;SDS011;37205;51.434;6.756;2024-03-02T03:42:02;3.35;;;1.55;;
50803;SDS011;37205;51.434;6.756;2024-03-02T03:44:28;3.35;;;1.58;;
50803;SDS011;37205;51.434;6.756;2024-03-02T03:46:53;4.63;;;1.80;;
50803;SDS011;37205;51.434;6.756;2024-03-02T03:49:19;3.88;;;1.95;;
50803;SDS011;37205;51.434;6.756;2024-03-02T03:51:44;4.88;;;1.83;;
50803;SDS011;37205;51.434;6.756;2024-03-02T03:54:10;5.65;;;2.17;;
50803;SDS011;37205;51.434;6.756;2024-03-02T03:56:36;4.97;;;2.40;;
50803;SDS011;37205;51.434;6.756;2024-03-02T03:59:02;4.90;;;2.03;;
50803;SDS011;37205;51.434;6.756;2024-03-02T04:01:27;4.22;;;2.03;;
50803;SDS011;37205;51.434;6.756;2024-03-02T04:03:53;3.90;;;1.90;;
50803;SDS011;37205;51.434;6.756;2024-03-02T04:06:18;4.03;;;2.25;;
50803;SDS011;37205;51.434;6.756;2024-03-02T04:08:44;4.50;;;2.08;;
50803;SDS011;37205;51.434;6.756;2024-03-02T04:11:10;3.95;;;1.67;;
50803;SDS011;37205;51.434;6.756;2024-03-02T04:13:35;3.70;;;2.08;;
50803;SDS011;37205;51.434;6.756;2024-03-02T04:16:01;4.40;;;1.98;;
50803;SDS011;37205;51.434;6.756;2024-03-02T04:18:28;4.43;;;2.60;;
50803;SDS011;37205;51.434;6.756;2024-03-02T04:20:54;4.60;;;1.95;;
50803;SDS011;37205;51.434;6.756;2024-03-02T04:23:19;3.22;;;1.60;;
50803;SDS011;37205;51.434;6.756;2024-03-02T04:25:45;4.38;;;1.88;;
50803;SDS011;37205;51.434;6.756;2024-03-02T04:28:10;3.15;;;1.75;;
50803;SDS011;37205;51.434;6.756;2024-03-02T04:30:37;4.18;;;1.60;;
50803;SDS011;37205;51.434;6.756;2024-03-02T04:33:03;3.08;;;1.70;;
50803;SDS011;37205;51.434;6.756;2024-03-02T04:35:29;3.97;;;1.73;;
50803;SDS011;37205;51.434;6.756;2024-03-02T04:37:54;4.53;;;1.70;;
50803;SDS011;37205;51.434;6.756;2024-03-02T04:40:20;3.47;;;1.90;;
50803;SDS011;37205;51.434;6.756;2024-03-02T04:42:45;4.53;;;1.98;;
50803;SDS011;37205;51.434;6.756;2024-03-02T04:45:11;3.25;;;1.73;;
50803;SDS011;37205;51.434;6.756;2024-03-02T04:47:36;3.50;;;1.65;;
50803;SDS011;37205;51.434;6.756;2024-03-02T04:50:02;3.33;;;1.70;;
50803;SDS011;37205;51.434;6.756;2024-03-02T04:52:27;2.90;;;1.50;;
50803;SDS011;37205;51.434;6.756;2024-03-02T04:54:53;4.63;;;1.88;;
50803;SDS011;37205;51.434;6.756;2024-03-02T04:57:37;4.38;;;1.67;;
50803;SDS011;37205;51.434;6.756;2024-03-02T05:00:03;3.10;;;1.60;;
50803;SDS011;37205;51.434;6.756;2024-03-02T05:02:32;4.45;;;1.80;;
50803;SDS011;37205;51.434;6.756;2024-03-02T05:04:57;4.53;;;1.70;;
50803;SDS011;37205;51.434;6.756;2024-03-02T05:07:23;5.47;;;1.50;;
50803;SDS011;37205;51.434;6.756;2024-03-02T05:09:48;4.28;;;1.90;;
50803;SDS011;37205;51.434;6.756;2024-03-02T05:12:14;3.55;;;1.55;;
50803;SDS011;37205;51.434;6.756;2024-03-02T05:14:42;3.22;;;1.42;;
50803;SDS011;37205;51.434;6.756;2024-03-02T05:17:08;3.40;;;1.85;;
50803;SDS011;37205;51.434;6.756;2024-03-02T05:19:33;3.75;;;1.52;;
50803;SDS011;37205;51.434;6.756;2024-03-02T05:21:59;3.20;;;1.60;;
50803;SDS011;37205;51.434;6.756;2024-03-02T05:24:24;3.33;;;1.70;;
50803;SDS011;37205;51.434;6.756;2024-03-02T05:26:52;2.97;;;1.58;;
50803;SDS011;37205;51.434;6.756;2024-03-02T05:29:18;3.42;;;1.83;;
50803;SDS011;37205;51.434;6.756;2024-03-02T05:31:43;4.07;;;1.63;;
50803;SDS011;37205;51.434;6.756;2024-03-02T05:34:09;3.10;;;1.50;;
50803;SDS011;37205;51.434;6.756;2024-03-02T05:36:35;3.40;;;1.60;;
50803;SDS011;37205;51.434;6.756;2024-03-02T05:39:00;2.53;;;1.42;;
50803;SDS011;37205;51.434;6.756;2024-03-02T05:41:26;3.67;;;1.70;;
50803;SDS011;37205;51.434;6.756;2024-03-02T05:43:52;3.40;;;1.52;;
50803;SDS011;37205;51.434;6.756;2024-03-02T05:46:17;3.38;;;1.58;;
50803;SDS011;37205;51.434;6.756;2024-03-02T05:48:43;4.22;;;2.20;;
50803;SDS011;37205;51.434;6.756;2024-03-02T05:51:08;2.85;;;1.33;;
50803;SDS011;37205;51.434;6.756;2024-03-02T05:53:34;3.35;;;1.50;;
50803;SDS011;37205;51.434;6.756;2024-03-02T05:56:03;4.10;;;1.80;;
50803;SDS011;37205;51.434;6.756;2024-03-02T05:58:29;3.88;;;1.52;;
50803;SDS011;37205;51.434;6.756;2024-03-02T06:01:11;3.17;;;1.55;;
50803;SDS011;37205;51.434;6.756;2024-03-02T06:03:36;3.08;;;1.40;;
50803;SDS011;37205;51.434;6.756;2024-03-02T06:06:02;3.10;;;1.50;;
50803;SDS011;37205;51.434;6.756;2024-03-02T06:08:28;3.80;;;1.75;;
50803;SDS011;37205;51.434;6.756;2024-03-02T06:10:53;5.35;;;1.75;;
50803;SDS011;37205;51.434;6.756;2024-03-02T06:13:19;2.97;;;1.58;;
50803;SDS011;37205;51.434;6.756;2024-03-02T06:15:44;4.28;;;1.77;;
50803;SDS011;37205;51.434;6.756;2024-03-02T06:18:10;3.80;;;1.85;;
50803;SDS011;37205;51.434;6.756;2024-03-02T06:20:35;5.55;;;1.60;;
50803;SDS011;37205;51.434;6.756;2024-03-02T06:23:02;4.80;;;1.70;;
50803;SDS011;37205;51.434;6.756;2024-03-02T06:25:27;2.53;;;1.20;;
50803;SDS011;37205;51.434;6.756;2024-03-02T06:27:53;4.40;;;1.73;;
50803;SDS011;37205;51.434;6.756;2024-03-02T06:30:18;4.35;;;1.73;;
50803;SDS011;37205;51.434;6.756;2024-03-02T06:32:44;3.10;;;1.60;;
50803;SDS011;37205;51.434;6.756;2024-03-02T06:35:09;4.20;;;1.77;;
50803;SDS011;37205;51.434;6.756;2024-03-02T06:37:35;4.38;;;2.00;;
50803;SDS011;37205;51.434;6.756;2024-03-02T06:40:01;4.65;;;2.08;;
50803;SDS011;37205;51.434;6.756;2024-03-02T06:42:27;4.95;;;1.85;;
50803;SDS011;37205;51.434;6.756;2024-03-02T06:44:58;3.63;;;1.85;;
50803;SDS011;37205;51.434;6.756;2024-03-02T06:47:23;4.45;;;1.73;;
50803;SDS011;37205;51.434;6.756;2024-03-02T06:49:49;3.88;;;1.85;;
50803;SDS011;37205;51.434;6.756;2024-03-02T06:52:15;4.10;;;1.90;;
50803;SDS011;37205;51.434;6.756;2024-03-02T06:54:40;3.88;;;1.88;;
50803;SDS011;37205;51.434;6.756;2024-03-02T06:57:06;3.90;;;1.80;;
50803;SDS011;37205;51.434;6.756;2024-03-02T06:59:31;3.65;;;1.95;;
50803;SDS011;37205;51.434;6.756;2024-03-02T07:01:58;4.47;;;2.10;;
50803;SDS011;37205;51.434;6.756;2024-03-02T07:04:24;6.10;;;2.25;;
50803;SDS011;37205;51.434;6.756;2024-03-02T07:06:49;3.70;;;2.10;;
50803;SDS011;37205;51.434;6.756;2024-03-02T07:09:16;4.07;;;1.70;;
50803;SDS011;37205;51.434;6.756;2024-03-02T07:11:41;5.88;;;1.90;;
50803;SDS011;37205;51.434;6.756;2024-03-02T07:14:07;5.10;;;2.00;;
50803;SDS011;37205;51.434;6.756;2024-03-02T07:16:32;3.53;;;2.08;;
50803;SDS011;37205;51.434;6.756;2024-03-02T07:18:59;4.47;;;1.70;;
50803;SDS011;37205;51.434;6.756;2024-03-02T07:21:26;4.05;;;1.85;;
50803;SDS011;37205;51.434;6.756;2024-03-02T07:23:52;4.82;;;1.90;;
50803;SDS011;37205;51.434;6.756;2024-03-02T07:26:17;3.05;;;1.60;;
50803;SDS011;37205;51.434;6.756;2024-03-02T07:28:44;4.15;;;2.13;;
50803;SDS011;37205;51.434;6.756;2024-03-02T07:31:13;4.97;;;2.10;;
50803;SDS011;37205;51.434;6.756;2024-03-02T07:33:39;4.25;;;1.80;;
50803;SDS011;37205;51.434;6.756;2024-03-02T07:36:04;5.22;;;2.38;;
50803;SDS011;37205;51.434;6.756;2024-03-02T07:38:30;6.28;;;2.20;;
50803;SDS011;37205;51.434;6.756;2024-03-02T07:40:56;3.67;;;2.13;;
50803;SDS011;37205;51.434;6.756;2024-03-02T07:43:22;5.05;;;2.08;;
50803;SDS011;37205;51.434;6.756;2024-03-02T07:45:48;5.07;;;2.17;;
50803;SDS011;37205;51.434;6.756;2024-03-02T07:48:14;4.93;;;2.20;;
50803;SDS011;37205;51.434;6.756;2024-03-02T07:50:40;3.78;;;2.13;;
50803;SDS011;37205;51.434;6.756;2024-03-02T07:53:06;4.55;;;2.28;;
50803;SDS011;37205;51.434;6.756;2024-03-02T07:55:32;5.13;;;1.95;;
50803;SDS011;37205;51.434;6.756;2024-03-02T07:57:58;3.13;;;1.90;;
50803;SDS011;37205;51.434;6.756;2024-03-02T08:00:24;4.05;;;2.13;;
50803;SDS011;37205;51.434;6.756;2024-03-02T08:02:50;3.85;;;2.28;;
50803;SDS011;37205;51.434;6.756;2024-03-02T08:05:17;3.90;;;1.98;;
50803;SDS011;37205;51.434;6.756;2024-03-02T08:07:44;3.65;;;2.20;;
50803;SDS011;37205;51.434;6.756;2024-03-02T08:10:10;3.92;;;2.33;;
50803;SDS011;37205;51.434;6.756;2024-03-02T08:12:35;6.40;;;2.22;;
50803;SDS011;37205;51.434;6.756;2024-03-02T08:15:01;6.28;;;3.08;;
50803;SDS011;37205;51.434;6.756;2024-03-02T08:17:26;4.25;;;2.40;;
50803;SDS011;37205;51.434;6.756;2024-03-02T08:19:52;4.13;;;2.53;;
50803;SDS011;37205;51.434;6.756;2024-03-02T08:22:18;4.47;;;2.05;;
50803;SDS011;37205;51.434;6.756;2024-03-02T08:24:44;5.75;;;2.53;;
50803;SDS011;37205;51.434;6.756;2024-03-02T08:27:10;5.22;;;2.22;;
50803;SDS011;37205;51.434;6.756;2024-03-02T08:29:35;5.93;;;2.78;;
50803;SDS011;37205;51.434;6.756;2024-03-02T08:32:01;5.53;;;2.50;;
50803;SDS011;37205;51.434;6.756;2024-03-02T08:34:27;5.45;;;2.80;;
50803;SDS011;37205;51.434;6.756;2024-03-02T08:36:53;4.70;;;2.55;;
50803;SDS011;37205;51.434;6.756;2024-03-02T08:39:18;4.82;;;2.30;;
50803;SDS011;37205;51.434;6.756;2024-03-02T08:41:44;4.38;;;2.38;;
50803;SDS011;37205;51.434;6.756;2024-03-02T08:44:10;6.00;;;2.92;;
50803;SDS011;37205;51.434;6.756;2024-03-02T08:46:37;4.45;;;2.30;;
50803;SDS011;37205;51.434;6.756;2024-03-02T08:49:03;4.53;;;2.60;;
50803;SDS011;37205;51.434;6.756;2024-03-02T08:51:29;5.78;;;2.60;;
50803;SDS011;37205;51.434;6.756;2024-03-02T08:53:55;4.80;;;2.45;;
50803;SDS011;37205;51.434;6.756;2024-03-02T08:56:21;6.90;;;2.80;;
50803;SDS011;37205;51.434;6.756;2024-03-02T08:58:48;4.95;;;2.78;;
50803;SDS011;37205;51.434;6.756;2024-03-02T09:01:14;3.83;;;2.40;;
50803;SDS011;37205;51.434;6.756;2024-03-02T09:03:40;4.40;;;2.15;;
50803;SDS011;37205;51.434;6.756;2024-03-02T09:06:09;3.78;;;2.25;;
50803;SDS011;37205;51.434;6.756;2024-03-02T09:08:35;3.92;;;2.05;;
50803;SDS011;37205;51.434;6.756;2024-03-02T09:11:01;3.83;;;2.17;;
50803;SDS011;37205;51.434;6.756;2024-03-02T09:13:27;3.15;;;1.85;;
50803;SDS011;37205;51.434;6.756;2024-03-02T09:15:54;3.97;;;2.10;;
50803;SDS011;37205;51.434;6.756;2024-03-02T09:18:19;3.63;;;2.08;;
50803;SDS011;37205;51.434;6.756;2024-03-02T09:20:45;3.78;;;2.20;;
50803;SDS011;37205;51.434;6.756;2024-03-02T09:23:11;4.85;;;2.78;;
50803;SDS011;37205;51.434;6.756;2024-03-02T09:25:36;4.38;;;2.17;;
50803;SDS011;37205;51.434;6.756;2024-03-02T09:28:02;4.35;;;2.28;;
50803;SDS011;37205;51.434;6.756;2024-03-02T09:30:28;3.88;;;2.20;;
50803;SDS011;37205;51.434;6.756;2024-03-02T09:32:53;4.03;;;2.10;;
50803;SDS011;37205;51.434;6.756;2024-03-02T09:35:19;4.10;;;1.90;;
50803;SDS011;37205;51.434;6.756;2024-03-02T09:37:45;5.43;;;2.38;;
50803;SDS011;37205;51.434;6.756;2024-03-02T09:40:11;2.90;;;1.75;;
50803;SDS011;37205;51.434;6.756;2024-03-02T09:42:38;3.92;;;1.92;;
50803;SDS011;37205;51.434;6.756;2024-03-02T09:45:04;3.63;;;1.83;;
50803;SDS011;37205;51.434;6.756;2024-03-02T09:47:31;4.78;;;1.85;;
50803;SDS011;37205;51.434;6.756;2024-03-02T09:49:56;5.13;;;1.80;;
50803;SDS011;37205;51.434;6.756;2024-03-02T09:52:22;2.60;;;1.30;;
50803;SDS011;37205;51.434;6.756;2024-03-02T09:54:48;2.22;;;1.15;;
50803;SDS011;37205;51.434;6.756;2024-03-02T09:57:14;4.45;;;1.63;;
50803;SDS011;37205;51.434;6.756;2024-03-02T09:59:40;3.47;;;1.40;;
50803;SDS011;37205;51.434;6.756;2024-03-02T10:02:05;4.10;;;1.58;;
50803;SDS011;37205;51.434;6.756;2024-03-02T10:04:32;3.85;;;1.30;;
50803;SDS011;37205;51.434;6.756;2024-03-02T10:09:40;3.63;;;1.33;;
50803;SDS011;37205;51.434;6.756;2024-03-02T10:12:15;4.32;;;1.27;;
50803;SDS011;37205;51.434;6.756;2024-03-02T10:14:42;4.15;;;1.30;;
50803;SDS011;37205;51.434;6.756;2024-03-02T10:17:08;3.28;;;1.27;;
50803;SDS011;37205;51.434;6.756;2024-03-02T10:19:35;3.83;;;1.40;;
50803;SDS011;37205;51.434;6.756;2024-03-02T10:22:02;3.45;;;1.30;;
50803;SDS011;37205;51.434;6.756;2024-03-02T10:24:37;4.13;;;1.23;;
50803;SDS011;37205;51.434;6.756;2024-03-02T10:27:08;3.38;;;1.10;;
50803;SDS011;37205;51.434;6.756;2024-03-02T10:29:38;4.03;;;1.38;;
50803;SDS011;37205;51.434;6.756;2024-03-02T10:32:04;3.42;;;1.38;;
50803;SDS011;37205;51.434;6.756;2024-03-02T10:34:31;4.07;;;1.40;;
50803;SDS011;37205;51.434;6.756;2024-03-02T10:36:57;4.28;;;1.30;;
50803;SDS011;37205;51.434;6.756;2024-03-02T10:39:23;3.58;;;1.30;;
50803;SDS011;37205;51.434;6.756;2024-03-02T10:41:49;3.35;;;1.48;;
50803;SDS011;37205;51.434;6.756;2024-03-02T10:44:17;3.88;;;1.20;;
50803;SDS011;37205;51.434;6.756;2024-03-02T10:46:44;2.65;;;1.30;;
50803;SDS011;37205;51.434;6.756;2024-03-02T10:49:10;2.65;;;1.42;;
50803;SDS011;37205;51.434;6.756;2024-03-02T10:51:36;3.85;;;1.42;;
50803;SDS011;37205;51.434;6.756;2024-03-02T10:54:02;3.72;;;1.30;;
50803;SDS011;37205;51.434;6.756;2024-03-02T10:56:29;4.97;;;1.70;;
50803;SDS011;37205;51.434;6.756;2024-03-02T10:59:03;4.25;;;1.38;;
50803;SDS011;37205;51.434;6.756;2024-03-02T11:01:41;3.03;;;1.23;;
50803;SDS011;37205;51.434;6.756;2024-03-02T11:04:08;2.90;;;1.00;;
50803;SDS011;37205;51.434;6.756;2024-03-02T11:06:37;3.88;;;1.20;;
50803;SDS011;37205;51.434;6.756;2024-03-02T11:09:06;3.40;;;1.08;;
50803;SDS011;37205;51.434;6.756;2024-03-02T11:11:37;3.00;;;1.23;;
50803;SDS011;37205;51.434;6.756;2024-03-02T11:14:13;5.05;;;1.10;;
50803;SDS011;37205;51.434;6.756;2024-03-02T11:16:41;4.43;;;1.20;;
50803;SDS011;37205;51.434;6.756;2024-03-02T11:19:14;5.53;;;1.48;;
50803;SDS011;37205;51.434;6.756;2024-03-02T11:21:41;3.35;;;1.25;;
50803;SDS011;37205;51.434;6.756;2024-03-02T11:24:40;3.58;;;1.50;;
50803;SDS011;37205;51.434;6.756;2024-03-02T11:27:00;4.47;;;1.17;;
50803;SDS011;37205;51.434;6.756;2024-03-02T11:32:01;3.00;;;1.10;;
50803;SDS011;37205;51.434;6.756;2024-03-02T11:34:40;3.53;;;1.30;;
50803;SDS011;37205;51.434;6.756;2024-03-02T11:37:12;4.28;;;1.52;;
50803;SDS011;37205;51.434;6.756;2024-03-02T11:39:42;3.60;;;1.52;;
50803;SDS011;37205;51.434;6.756;2024-03-02T11:42:09;3.30;;;1.40;;
50803;SDS011;37205;51.434;6.756;2024-03-02T11:44:38;2.47;;;1.27;;
50803;SDS011;37205;51.434;6.756;2024-03-02T11:47:06;4.13;;;1.50;;
50803;SDS011;37205;51.434;6.756;2024-03-02T11:49:39;4.22;;;1.50;;
50803;SDS011;37205;51.434;6.756;2024-03-02T11:52:15;2.75;;;1.40;;
50803;SDS011;37205;51.434;6.756;2024-03-02T11:54:43;5.45;;;1.67;;
50803;SDS011;37205;51.434;6.756;2024-03-02T11:57:16;3.03;;;1.50;;
50803;SDS011;37205;51.434;6.756;2024-03-02T11:59:43;3.20;;;1.40;;
50803;SDS011;37205;51.434;6.756;2024-03-02T12:02:18;2.75;;;1.40;;
50803;SDS011;37205;51.434;6.756;2024-03-02T12:04:46;3.05;;;1.20;;
50803;SDS011;37205;51.434;6.756;2024-03-02T12:07:19;6.53;;;1.30;;
50803;SDS011;37205;51.434;6.756;2024-03-02T12:09:49;6.47;;;1.85;;
50803;SDS011;37205;51.434;6.756;2024-03-02T12:12:25;7.10;;;2.00;;
50803;SDS011;37205;51.434;6.756;2024-03-02T12:14:52;4.20;;;1.90;;
50803;SDS011;37205;51.434;6.756;2024-03-02T12:17:20;4.95;;;2.25;;
50803;SDS011;37205;51.434;6.756;2024-03-02T12:19:45;6.40;;;2.30;;
50803;SDS011;37205;51.434;6.756;2024-03-02T12:22:11;9.85;;;3.85;;
50803;SDS011;37205;51.434;6.756;2024-03-02T12:24:37;4.47;;;2.30;;
50803;SDS011;37205;51.434;6.756;2024-03-02T12:27:03;5.05;;;1.80;;
50803;SDS011;37205;51.434;6.756;2024-03-02T12:29:29;5.60;;;2.17;;
50803;SDS011;37205;51.434;6.756;2024-03-02T12:31:55;8.32;;;3.42;;
50803;SDS011;37205;51.434;6.756;2024-03-02T12:34:21;6.43;;;2.67;;
50803;SDS011;37205;51.434;6.756;2024-03-02T12:36:48;5.68;;;2.30;;
50803;SDS011;37205;51.434;6.756;2024-03-02T12:39:21;7.50;;;3.83;;
50803;SDS011;37205;51.434;6.756;2024-03-02T12:41:50;7.97;;;2.85;;
50803;SDS011;37205;51.434;6.756;2024-03-02T12:44:16;9.65;;;5.00;;
50803;SDS011;37205;51.434;6.756;2024-03-02T12:46:43;11.13;;;4.75;;
50803;SDS011;37205;51.434;6.756;2024-03-02T12:49:09;7.80;;;3.20;;
50803;SDS011;37205;51.434;6.756;2024-03-02T12:51:36;9.07;;;4.50;;
50803;SDS011;37205;51.434;6.756;2024-03-02T12:54:03;17.75;;;8.88;;
50803;SDS011;37205;51.434;6.756;2024-03-02T12:56:30;7.60;;;3.80;;
50803;SDS011;37205;51.434;6.756;2024-03-02T12:58:56;5.97;;;2.92;;
50803;SDS011;37205;51.434;6.756;2024-03-02T13:01:22;5.15;;;2.35;;
50803;SDS011;37205;51.434;6.756;2024-03-02T13:03:48;9.93;;;4.68;;
50803;SDS011;37205;51.434;6.756;2024-03-02T13:06:16;9.63;;;4.18;;
50803;SDS011;37205;51.434;6.756;2024-03-02T13:08:41;9.85;;;3.83;;
50803;SDS011;37205;51.434;6.756;2024-03-02T13:11:07;4.78;;;2.42;;
50803;SDS011;37205;51.434;6.756;2024-03-02T13:13:33;4.47;;;1.73;;
50803;SDS011;37205;51.434;6.756;2024-03-02T13:15:59;4.75;;;1.90;;
50803;SDS011;37205;51.434;6.756;2024-03-02T13:18:25;3.35;;;1.67;;
50803;SDS011;37205;51.434;6.756;2024-03-02T13:20:52;3.20;;;1.30;;
50803;SDS011;37205;51.434;6.756;2024-03-02T13:23:18;4.90;;;1.50;;
50803;SDS011;37205;51.434;6.756;2024-03-02T13:25:44;2.65;;;1.40;;
50803;SDS011;37205;51.434;6.756;2024-03-02T13:28:12;4.03;;;1.50;;
50803;SDS011;37205;51.434;6.756;2024-03-02T13:30:38;4.10;;;1.40;;
50803;SDS011;37205;51.434;6.756;2024-03-02T13:33:03;4.75;;;1.30;;
50803;SDS011;37205;51.434;6.756;2024-03-02T13:35:29;2.95;;;1.38;;
50803;SDS011;37205;51.434;6.756;2024-03-02T13:37:55;2.65;;;1.10;;
50803;SDS011;37205;51.434;6.756;2024-03-02T13:40:20;3.55;;;1.83;;
50803;SDS011;37205;51.434;6.756;2024-03-02T13:42:46;3.00;;;1.20;;
50803;SDS011;37205;51.434;6.756;2024-03-02T13:45:12;3.75;;;0.88;;
50803;SDS011;37205;51.434;6.756;2024-03-02T13:47:38;3.58;;;1.52;;
50803;SDS011;37205;51.434;6.756;2024-03-02T13:50:04;4.40;;;1.30;;
50803;SDS011;37205;51.434;6.756;2024-03-02T13:52:31;2.88;;;1.33;;
50803;SDS011;37205;51.434;6.756;2024-03-02T13:54:56;3.28;;;1.55;;
50803;SDS011;37205;51.434;6.756;2024-03-02T13:57:22;2.72;;;1.02;;
50803;SDS011;37205;51.434;6.756;2024-03-02T13:59:47;3.72;;;1.42;;
50803;SDS011;37205;51.434;6.756;2024-03-02T14:02:14;2.38;;;1.10;;
50803;SDS011;37205;51.434;6.756;2024-03-02T14:04:40;2.65;;;1.10;;
50803;SDS011;37205;51.434;6.756;2024-03-02T14:07:06;2.60;;;1.00;;
50803;SDS011;37205;51.434;6.756;2024-03-02T14:09:32;3.47;;;1.42;;
50803;SDS011;37205;51.434;6.756;2024-03-02T14:11:58;3.20;;;0.90;;
50803;SDS011;37205;51.434;6.756;2024-03-02T14:14:25;2.47;;;0.80;;
50803;SDS011;37205;51.434;6.756;2024-03-02T14:16:52;2.50;;;1.25;;
50803;SDS011;37205;51.434;6.756;2024-03-02T14:19:18;3.40;;;1.10;;
50803;SDS011;37205;51.434;6.756;2024-03-02T14:21:46;2.53;;;1.20;;
50803;SDS011;37205;51.434;6.756;2024-03-02T14:24:12;2.47;;;1.17;;
50803;SDS011;37205;51.434;6.756;2024-03-02T14:26:38;3.38;;;1.58;;
50803;SDS011;37205;51.434;6.756;2024-03-02T14:29:04;2.05;;;1.05;;
50803;SDS011;37205;51.434;6.756;2024-03-02T14:31:30;3.40;;;1.50;;
50803;SDS011;37205;51.434;6.756;2024-03-02T14:33:58;2.90;;;1.10;;
50803;SDS011;37205;51.434;6.756;2024-03-02T14:36:25;2.83;;;1.20;;
50803;SDS011;37205;51.434;6.756;2024-03-02T14:38:52;2.40;;;1.25;;
50803;SDS011;37205;51.434;6.756;2024-03-02T14:41:18;2.35;;;1.08;;
50803;SDS011;37205;51.434;6.756;2024-03-02T14:43:44;3.55;;;1.13;;
50803;SDS011;37205;51.434;6.756;2024-03-02T14:46:09;2.08;;;0.90;;
50803;SDS011;37205;51.434;6.756;2024-03-02T14:48:36;2.47;;;1.10;;
50803;SDS011;37205;51.434;6.756;2024-03-02T14:51:02;1.88;;;0.88;;